ADDS METAR Data INFO
IDs: Format: Raw Decoded Include TAF

Data at: 2031 UTC 20 Jul 2018

KVOA 202020Z AUTO 30011KT 10SM SCT060 29/26 A2996 RMK A01
KVOA 202000Z AUTO 30012KT 10SM SCT060 29/26 A2996 RMK A01
KVOA 201940Z AUTO 30012KT 10SM CLR 29/25 A2996 RMK A01
KVOA 201920Z AUTO 30014KT 9SM CLR 29/25 A2996 RMK A01
KVOA 201900Z AUTO 31014KT 10SM CLR 29/25 A2997 RMK A01
KVOA 201840Z AUTO 30013KT 10SM CLR 29/25 A2997 RMK A01
KVOA 201820Z AUTO 30014KT 10SM CLR 29/25 A2997 RMK A01
KVOA 201800Z AUTO 30012KT 10SM CLR 29/25 A2998 RMK A01
KVOA 201740Z AUTO 31015KT 10SM FEW060 29/25 A2998 RMK A01
KVOA 201720Z AUTO 31014KT 10SM CLR 29/26 A2998 RMK A01
KVOA 201700Z AUTO 31014KT 10SM CLR 29/26 A2998 RMK A01
KVOA 201640Z AUTO 32013KT 10SM FEW049 29/26 A2998 RMK A01
KVOA 201620Z AUTO 32014KT 10SM FEW046 SCT050 29/26 A2999 RMK A01
KVOA 201600Z AUTO 30015KT 10SM CLR 29/26 A2999 RMK A01
KVOA 201540Z AUTO 30013KT 10SM CLR 28/25 A2998 RMK A01
KVOA 201520Z AUTO 29013KT 10SM FEW065 29/26 A2998 RMK A01
KVOA 201500Z AUTO 30014KT 10SM FEW065 SCT080 29/25 A2999 RMK A01
KVOA 201440Z AUTO 30013KT 10SM FEW048 29/25 A2998 RMK A01
KVOA 201420Z AUTO 30012KT 10SM BKN048 BKN055 BKN070 29/25 A2998 RMK A01
KVOA 201400Z AUTO 29012KT 10SM BKN049 BKN055 BKN070 29/25 A2998 RMK A01
KVOA 201340Z AUTO 29011KT 10SM FEW048 SCT065 SCT075 29/25 A2998 RMK A01
KVOA 201320Z AUTO 30010KT 10SM CLR 29/25 A2996 RMK A01
KVOA 201300Z AUTO 30010KT 10SM CLR 29/25 A2996 RMK A01
KVOA 201240Z AUTO 30010KT 10SM CLR 29/25 A2995 RMK A01
KVOA 201220Z AUTO 30012KT 10SM CLR 29/25 A2994 RMK A01
KVOA 201200Z AUTO 30011KT 10SM CLR 29/24 A2993 RMK A01
KVOA 201140Z AUTO 30013KT 10SM CLR 28/24 A2993 RMK A01
KVOA 201120Z AUTO 30011KT 10SM CLR 28/25 A2992 RMK A01
KVOA 201100Z AUTO 30013KT 10SM FEW023 FEW028 FEW048 28/25 A2991 RMK A01
KVOA 201040Z AUTO 29012KT 10SM CLR 28/25 A2990 RMK A01
KVOA 201020Z AUTO 29013KT 10SM CLR 28/25 A2990 RMK A01
KVOA 201000Z AUTO 29015KT 10SM CLR 28/26 A2989 RMK A01
KVOA 200940Z AUTO 29014KT 10SM CLR 28/26 A2989 RMK A01
KVOA 200920Z AUTO 28013KT 10SM FEW050 28/26 A2989 RMK A01
KVOA 200900Z AUTO 28016KT 10SM FEW050 28/27 A2990 RMK A01
KVOA 200840Z AUTO 27015KT 10SM FEW012 FEW018 BKN049 28/27 A2989 RMK A01
KVOA 200820Z AUTO 26015KT 9SM FEW014 28/27 A2989 RMK A01
KVOA 200800Z AUTO 26014KT 9SM SCT013 SCT018 SCT025 29/27 A2989 RMK A01
KVOA 200740Z AUTO 27015KT 10SM SCT012 BKN018 BKN025 28/27 A2990 RMK A01
KVOA 200720Z AUTO 26014KT 9SM BKN013 BKN021 28/27 A2990 RMK A01
KVOA 200700Z AUTO 26013KT 10SM FEW011 28/27 A2990 RMK A01
KVOA 200640Z AUTO 27015KT 10SM CLR 28/27 A2990 RMK A01
KVOA 200620Z AUTO 27016KT 10SM CLR 28/26 A2991 RMK A01
KVOA 200600Z AUTO 27015KT 9SM CLR 28/26 A2992 RMK A01
KVOA 200540Z AUTO 27014KT 9SM FEW014 28/26 A2992 RMK A01
KVOA 200520Z AUTO 27017KT 10SM FEW014 SCT050 SCT055 28/26 A2992 RMK A01
KVOA 200500Z AUTO 28014KT 10SM SCT050 BKN055 28/26 A2994 RMK A01
KVOA 200440Z AUTO 27016KT 10SM FEW014 FEW040 28/26 A2993 RMK A01
KVOA 200420Z AUTO 27017KT 10SM FEW014 FEW020 FEW025 29/26 A2993 RMK A01
KVOA 200400Z AUTO 27016KT 10SM FEW020 SCT026 SCT031 28/26 A2993 RMK A01
KVOA 200340Z AUTO 26017KT 10SM FEW015 FEW032 FEW048 28/26 A2992 RMK A01
KVOA 200320Z AUTO 26019KT 10SM FEW016 FEW032 28/26 A2992 RMK A01
KVOA 200300Z AUTO 26018KT 10SM FEW032 28/26 A2992 RMK A01
KVOA 200240Z AUTO 26018KT 10SM FEW015 FEW028 SCT034 28/26 A2992 RMK A01
KVOA 200220Z AUTO 25019KT 10SM SCT033 BKN040 28/25 A2992 RMK A01
KVOA 200200Z AUTO 25019KT 10SM FEW028 BKN034 OVC039 29/25 A2992 RMK A01
KVOA 200140Z AUTO 25020KT 10SM SCT027 OVC036 29/25 A2992 RMK A01
KVOA 200120Z AUTO 26020KT 10SM BKN036 29/25 A2992 RMK A01
KVOA 200100Z AUTO 25018KT 10SM CLR 29/25 A2992 RMK A01
KVOA 200040Z AUTO 25018KT 10SM FEW027 BKN035 29/25 A2992 RMK A01
KVOA 200020Z AUTO 25018KT FEW016 FEW024 BKN035 29/25 A2992 RMK A01
KVOA 200000Z AUTO 25019KT 10SM FEW024 29/24 A2991 RMK A01
KVOA 192340Z AUTO 24017KT 10SM CLR 29/26 A2991 RMK A01
KVOA 192320Z AUTO 24017KT 10SM CLR 28/25 A2991 RMK A01
KVOA 192300Z AUTO 25015KT 10SM CLR 28/24 A2990 RMK A01
KVOA 192240Z AUTO 25012KT 10SM CLR 27/23 A2990 RMK A01
KVOA 192220Z AUTO 24012KT 9SM CLR 27/23 A2991 RMK A01
KVOA 192200Z AUTO 24015KT 9SM FEW029 FEW036 27/24 A2992 RMK A01
KVOA 192140Z AUTO 25015KT 9SM SCT017 BKN030 BKN043 26/22 A2993 RMK A01
KVOA 192120Z AUTO 26017KT 10SM BKN017 OVC042 28/24 A2992 RMK A01
KVOA 192100Z AUTO 25012KT 10SM FEW018 SCT042 28/25 A2993 RMK A01
KVOA 192040Z AUTO 24010KT 10SM CLR 28/25 A2993 RMK A01
KVOA 192020Z AUTO 26009KT 9SM CLR 27/25 A2994 RMK A01
KVOA 192000Z AUTO 27011KT 8SM CLR 27/25 A2994 RMK A01 P0003
KVOA 191940Z AUTO 28011KT 8SM CLR 27/25 A2994 RMK A01
KVOA 191920Z AUTO 27012KT 3SM BR CLR 26/25 A2995 RMK A01
KVOA 191900Z AUTO 28015KT 3SM BR FEW015 27/25 A2995 RMK A01 P0007
KVOA 191840Z AUTO 30011KT 3SM BR CLR 26/24 A2996 RMK A01
KVOA 191820Z AUTO 28012KT 3SM BR FEW060 26/24 A2996 RMK A01
KVOA 191800Z AUTO 29015KT 4SM BR FEW060 26/24 A2996 RMK A01 P0004
KVOA 191740Z AUTO 31013KT 2SM BR FEW031 FEW037 SCT050 25/23 A2996 RMK A01
KVOA 191720Z AUTO 34013G23KT 1 3/4SM BR SCT018 SCT024 BKN032 25/23 A2997 RMK A01
KVOA 191700Z AUTO 30023G29KT 10SM FEW024 FEW028 SCT041 28/25 A2997 RMK A01
KVOA 191640Z AUTO 28017KT 10SM FEW015 SCT050 28/25 A2997 RMK A01
KVOA 191620Z AUTO 27013KT 10SM FEW040 SCT050 28/25 A2997 RMK A01
KVOA 191600Z AUTO 27014KT 7SM FEW014 FEW038 SCT047 28/25 A2997 RMK A01 P0003
KVOA 191540Z AUTO 26013KT 1 3/4SM HZ SCT023 BKN030 BKN036 27/24 A2997 RMK A01
KVOA 191520Z AUTO 27018KT 8SM SCT016 BKN021 OVC031 28/24 A2997 RMK A01
KVOA 191500Z AUTO 27014KT 7SM SCT016 BKN022 28/25 A2997 RMK A01
KVOA 191440Z AUTO 30013KT SCT020 SCT049 28/24 A2996 RMK A01
KVOA 191420Z AUTO 29014KT 9SM FEW018 SCT024 SCT042 28/24 A2997 RMK A01
KVOA 191400Z AUTO 30014KT 10SM FEW020 FEW042 28/24 A2997 RMK A01
KVOA 191340Z AUTO 30016KT 10SM FEW019 FEW037 28/24 A2996 RMK A01
KVOA 191320Z AUTO 30014KT 9SM FEW037 28/24 A2996 RMK A01
KVOA 191300Z AUTO 29014KT 9SM CLR 28/24 A2996 RMK A01
KVOA 191240Z AUTO 29014KT 8SM FEW018 FEW023 28/24 A2995 RMK A01
KVOA 191220Z AUTO 30014KT 9SM FEW018 FEW023 28/24 A2995 RMK A01
KVOA 191200Z AUTO 30016KT 9SM FEW018 FEW034 FEW046 28/24 A2994 RMK A01
KVOA 191140Z AUTO 30016KT 9SM FEW021 FEW029 SCT035 28/24 A2995 RMK A01
KVOA 191120Z AUTO 29017KT 9SM FEW017 SCT022 BKN030 28/24 A2994 RMK A01
KVOA 191100Z AUTO 29016KT 10SM FEW017 FEW022 SCT035 28/24 A2994 RMK A01
KVOA 191040Z AUTO 29016KT 9SM FEW017 FEW023 BKN035 27/24 A2994 RMK A01
KVOA 191020Z AUTO 29017KT 9SM FEW017 FEW021 SCT040 27/24 A2994 RMK A01
KVOA 191000Z AUTO 28017KT 10SM SCT016 BKN021 BKN055 27/24 A2993 RMK A01
KVOA 190940Z AUTO 28018KT 10SM SCT016 BKN047 BKN055 28/24 A2993 RMK A01
KVOA 190920Z AUTO 28018KT 9SM SCT017 OVC048 28/24 A2992 RMK A01
KVOA 190900Z AUTO 27018KT 10SM FEW017 SCT032 OVC048 28/24 A2992 RMK A01
KVOA 190840Z AUTO 26017KT 10SM FEW017 BKN032 OVC050 28/24 A2992 RMK A01